sensor_id;sensor_type;location;lat;lon;timestamp;temperature;humidity
9497;DHT22;4786;51.270;4.456;2023-04-24T00:00:56;10.90;99.90
9497;DHT22;4786;51.270;4.456;2023-04-24T00:03:25;11.00;99.90
9497;DHT22;4786;51.270;4.456;2023-04-24T00:05:56;10.90;99.90
9497;DHT22;4786;51.270;4.456;2023-04-24T00:08:22;10.90;99.90
9497;DHT22;4786;51.270;4.456;2023-04-24T00:10:49;10.90;99.90
9497;DHT22;4786;51.270;4.456;2023-04-24T00:13:15;10.90;99.90
9497;DHT22;4786;51.270;4.456;2023-04-24T00:15:40;10.80;99.90
9497;DHT22;4786;51.270;4.456;2023-04-24T00:18:06;10.80;99.90
9497;DHT22;4786;51.270;4.456;2023-04-24T00:20:33;10.80;99.90
9497;DHT22;4786;51.270;4.456;2023-04-24T00:23:00;10.80;99.90
9497;DHT22;4786;51.270;4.456;2023-04-24T00:25:26;10.80;99.90
9497;DHT22;4786;51.270;4.456;2023-04-24T00:27:52;10.80;99.90
9497;DHT22;4786;51.270;4.456;2023-04-24T00:30:19;10.80;99.90
9497;DHT22;4786;51.270;4.456;2023-04-24T00:32:45;10.80;99.90
9497;DHT22;4786;51.270;4.456;2023-04-24T00:35:11;10.80;99.90
9497;DHT22;4786;51.270;4.456;2023-04-24T00:37:37;10.80;99.90
9497;DHT22;4786;51.270;4.456;2023-04-24T00:40:03;10.70;99.90
9497;DHT22;4786;51.270;4.456;2023-04-24T00:42:29;10.70;99.90
9497;DHT22;4786;51.270;4.456;2023-04-24T00:44:56;10.70;99.90
9497;DHT22;4786;51.270;4.456;2023-04-24T00:47:22;10.70;99.90
9497;DHT22;4786;51.270;4.456;2023-04-24T00:49:48;10.70;99.90
9497;DHT22;4786;51.270;4.456;2023-04-24T00:52:14;10.70;99.90
9497;DHT22;4786;51.270;4.456;2023-04-24T00:54:43;10.60;99.90
9497;DHT22;4786;51.270;4.456;2023-04-24T00:57:10;10.70;99.90
9497;DHT22;4786;51.270;4.456;2023-04-24T00:59:37;10.60;99.90
9497;DHT22;4786;51.270;4.456;2023-04-24T01:02:03;10.60;99.90
9497;DHT22;4786;51.270;4.456;2023-04-24T01:04:29;10.60;99.90
9497;DHT22;4786;51.270;4.456;2023-04-24T01:06:55;10.50;99.90
9497;DHT22;4786;51.270;4.456;2023-04-24T01:09:23;10.50;99.90
9497;DHT22;4786;51.270;4.456;2023-04-24T01:11:49;10.60;99.90
9497;DHT22;4786;51.270;4.456;2023-04-24T01:14:15;10.60;99.90
9497;DHT22;4786;51.270;4.456;2023-04-24T01:16:41;10.50;99.90
9497;DHT22;4786;51.270;4.456;2023-04-24T01:19:07;10.40;99.90
9497;DHT22;4786;51.270;4.456;2023-04-24T01:21:36;10.40;99.90
9497;DHT22;4786;51.270;4.456;2023-04-24T01:24:03;10.40;99.90
9497;DHT22;4786;51.270;4.456;2023-04-24T01:26:29;10.50;99.90
9497;DHT22;4786;51.270;4.456;2023-04-24T01:28:55;10.40;99.90
9497;DHT22;4786;51.270;4.456;2023-04-24T01:31:21;10.50;99.90
9497;DHT22;4786;51.270;4.456;2023-04-24T01:33:47;10.50;99.90
9497;DHT22;4786;51.270;4.456;2023-04-24T01:36:13;10.50;99.90
9497;DHT22;4786;51.270;4.456;2023-04-24T01:38:40;10.60;99.90
9497;DHT22;4786;51.270;4.456;2023-04-24T01:41:05;10.60;99.90
9497;DHT22;4786;51.270;4.456;2023-04-24T01:43:31;10.60;99.90
9497;DHT22;4786;51.270;4.456;2023-04-24T01:45:58;10.50;99.90
9497;DHT22;4786;51.270;4.456;2023-04-24T01:48:24;10.60;99.90
9497;DHT22;4786;51.270;4.456;2023-04-24T01:50:50;10.60;99.90
9497;DHT22;4786;51.270;4.456;2023-04-24T01:53:16;10.60;99.90
9497;DHT22;4786;51.270;4.456;2023-04-24T01:55:41;10.70;99.90
9497;DHT22;4786;51.270;4.456;2023-04-24T01:58:08;10.60;99.90
9497;DHT22;4786;51.270;4.456;2023-04-24T02:00:33;10.60;99.90
9497;DHT22;4786;51.270;4.456;2023-04-24T02:03:00;10.60;99.90
9497;DHT22;4786;51.270;4.456;2023-04-24T02:05:27;10.60;99.90
9497;DHT22;4786;51.270;4.456;2023-04-24T02:07:53;10.60;99.90
9497;DHT22;4786;51.270;4.456;2023-04-24T02:10:19;10.60;99.90
9497;DHT22;4786;51.270;4.456;2023-04-24T02:12:45;10.60;99.90
9497;DHT22;4786;51.270;4.456;2023-04-24T02:15:11;10.60;99.90
9497;DHT22;4786;51.270;4.456;2023-04-24T02:17:38;10.50;99.90
9497;DHT22;4786;51.270;4.456;2023-04-24T02:20:05;10.50;99.90
9497;DHT22;4786;51.270;4.456;2023-04-24T02:22:31;10.50;99.90
9497;DHT22;4786;51.270;4.456;2023-04-24T02:24:57;10.50;99.90
9497;DHT22;4786;51.270;4.456;2023-04-24T02:27:23;10.50;99.90
9497;DHT22;4786;51.270;4.456;2023-04-24T02:29:49;10.50;99.90
9497;DHT22;4786;51.270;4.456;2023-04-24T02:32:15;10.50;99.90
9497;DHT22;4786;51.270;4.456;2023-04-24T02:34:41;10.50;99.90
9497;DHT22;4786;51.270;4.456;2023-04-24T02:37:07;10.50;99.90
9497;DHT22;4786;51.270;4.456;2023-04-24T02:39:33;10.40;99.90
9497;DHT22;4786;51.270;4.456;2023-04-24T02:41:59;10.40;99.90
9497;DHT22;4786;51.270;4.456;2023-04-24T02:44:25;10.40;99.90
9497;DHT22;4786;51.270;4.456;2023-04-24T02:46:51;10.40;99.90
9497;DHT22;4786;51.270;4.456;2023-04-24T02:49:17;10.30;99.90
9497;DHT22;4786;51.270;4.456;2023-04-24T02:51:43;10.30;99.90
9497;DHT22;4786;51.270;4.456;2023-04-24T02:54:09;10.30;99.90
9497;DHT22;4786;51.270;4.456;2023-04-24T02:56:35;10.40;99.90
9497;DHT22;4786;51.270;4.456;2023-04-24T02:59:01;10.40;99.90
9497;DHT22;4786;51.270;4.456;2023-04-24T03:01:27;10.50;99.90
9497;DHT22;4786;51.270;4.456;2023-04-24T03:03:52;10.50;99.90
9497;DHT22;4786;51.270;4.456;2023-04-24T03:06:18;10.40;99.90
9497;DHT22;4786;51.270;4.456;2023-04-24T03:08:44;10.40;99.90
9497;DHT22;4786;51.270;4.456;2023-04-24T03:11:09;10.40;99.90
9497;DHT22;4786;51.270;4.456;2023-04-24T03:13:36;10.40;99.90
9497;DHT22;4786;51.270;4.456;2023-04-24T03:16:02;10.40;99.90
9497;DHT22;4786;51.270;4.456;2023-04-24T03:18:27;10.30;99.90
9497;DHT22;4786;51.270;4.456;2023-04-24T03:20:53;10.40;99.90
9497;DHT22;4786;51.270;4.456;2023-04-24T03:23:20;10.30;99.90
9497;DHT22;4786;51.270;4.456;2023-04-24T03:25:46;10.30;99.90
9497;DHT22;4786;51.270;4.456;2023-04-24T03:28:13;10.30;99.90
9497;DHT22;4786;51.270;4.456;2023-04-24T03:30:39;10.30;99.90
9497;DHT22;4786;51.270;4.456;2023-04-24T03:33:05;10.40;99.90
9497;DHT22;4786;51.270;4.456;2023-04-24T03:35:30;10.40;99.90
9497;DHT22;4786;51.270;4.456;2023-04-24T03:37:56;10.20;99.90
9497;DHT22;4786;51.270;4.456;2023-04-24T03:40:22;10.20;99.90
9497;DHT22;4786;51.270;4.456;2023-04-24T03:42:48;10.20;99.90
9497;DHT22;4786;51.270;4.456;2023-04-24T03:45:14;10.20;99.90
9497;DHT22;4786;51.270;4.456;2023-04-24T03:47:40;10.20;99.90
9497;DHT22;4786;51.270;4.456;2023-04-24T03:50:06;10.10;99.90
9497;DHT22;4786;51.270;4.456;2023-04-24T03:52:32;10.10;99.90
9497;DHT22;4786;51.270;4.456;2023-04-24T03:54:58;10.00;99.90
9497;DHT22;4786;51.270;4.456;2023-04-24T03:57:24;10.00;99.90
9497;DHT22;4786;51.270;4.456;2023-04-24T03:59:50;10.10;99.90
9497;DHT22;4786;51.270;4.456;2023-04-24T04:02:15;10.10;99.90
9497;DHT22;4786;51.270;4.456;2023-04-24T04:04:42;10.00;99.90
9497;DHT22;4786;51.270;4.456;2023-04-24T04:07:07;10.00;99.90
9497;DHT22;4786;51.270;4.456;2023-04-24T04:09:33;10.00;99.90
9497;DHT22;4786;51.270;4.456;2023-04-24T04:12:00;10.00;99.90
9497;DHT22;4786;51.270;4.456;2023-04-24T04:14:26;10.00;99.90
9497;DHT22;4786;51.270;4.456;2023-04-24T04:16:52;10.00;99.90
9497;DHT22;4786;51.270;4.456;2023-04-24T04:19:18;10.00;99.90
9497;DHT22;4786;51.270;4.456;2023-04-24T04:21:44;10.00;99.90
9497;DHT22;4786;51.270;4.456;2023-04-24T04:24:11;10.00;99.90
9497;DHT22;4786;51.270;4.456;2023-04-24T04:26:37;10.00;99.90
9497;DHT22;4786;51.270;4.456;2023-04-24T04:29:04;10.00;99.90
9497;DHT22;4786;51.270;4.456;2023-04-24T04:31:30;9.90;99.90
9497;DHT22;4786;51.270;4.456;2023-04-24T04:33:56;9.80;99.90
9497;DHT22;4786;51.270;4.456;2023-04-24T04:36:22;9.80;99.90
9497;DHT22;4786;51.270;4.456;2023-04-24T04:38:49;9.70;99.90
9497;DHT22;4786;51.270;4.456;2023-04-24T04:41:15;9.80;99.90
9497;DHT22;4786;51.270;4.456;2023-04-24T04:43:43;9.80;99.90
9497;DHT22;4786;51.270;4.456;2023-04-24T04:46:09;9.70;99.90
9497;DHT22;4786;51.270;4.456;2023-04-24T04:48:36;9.80;99.90
9497;DHT22;4786;51.270;4.456;2023-04-24T04:51:02;9.80;99.90
9497;DHT22;4786;51.270;4.456;2023-04-24T04:53:28;9.80;99.90
9497;DHT22;4786;51.270;4.456;2023-04-24T04:55:54;9.80;99.90
9497;DHT22;4786;51.270;4.456;2023-04-24T04:58:20;9.80;99.90
9497;DHT22;4786;51.270;4.456;2023-04-24T05:00:46;9.70;99.90
9497;DHT22;4786;51.270;4.456;2023-04-24T05:03:12;9.60;99.90
9497;DHT22;4786;51.270;4.456;2023-04-24T05:05:38;9.70;99.90
9497;DHT22;4786;51.270;4.456;2023-04-24T05:08:07;9.70;99.90
9497;DHT22;4786;51.270;4.456;2023-04-24T05:10:33;9.70;99.90
9497;DHT22;4786;51.270;4.456;2023-04-24T05:12:59;9.70;99.90
9497;DHT22;4786;51.270;4.456;2023-04-24T05:15:25;9.70;99.90
9497;DHT22;4786;51.270;4.456;2023-04-24T05:17:51;9.70;99.90
9497;DHT22;4786;51.270;4.456;2023-04-24T05:20:17;9.50;99.90
9497;DHT22;4786;51.270;4.456;2023-04-24T05:22:43;9.50;99.90
9497;DHT22;4786;51.270;4.456;2023-04-24T05:25:09;9.50;99.90
9497;DHT22;4786;51.270;4.456;2023-04-24T05:27:34;9.50;99.90
9497;DHT22;4786;51.270;4.456;2023-04-24T05:30:01;9.50;99.90
9497;DHT22;4786;51.270;4.456;2023-04-24T05:32:26;9.50;99.90
9497;DHT22;4786;51.270;4.456;2023-04-24T05:34:52;9.50;99.90
9497;DHT22;4786;51.270;4.456;2023-04-24T05:37:18;9.80;99.90
9497;DHT22;4786;51.270;4.456;2023-04-24T05:39:43;9.60;99.90
9497;DHT22;4786;51.270;4.456;2023-04-24T05:42:09;9.60;99.90
9497;DHT22;4786;51.270;4.456;2023-04-24T05:44:35;9.40;99.90
9497;DHT22;4786;51.270;4.456;2023-04-24T05:47:01;9.50;99.90
9497;DHT22;4786;51.270;4.456;2023-04-24T05:49:27;9.50;99.90
9497;DHT22;4786;51.270;4.456;2023-04-24T05:51:53;9.50;99.90
9497;DHT22;4786;51.270;4.456;2023-04-24T05:54:19;9.50;99.90
9497;DHT22;4786;51.270;4.456;2023-04-24T05:56:44;9.60;99.90
9497;DHT22;4786;51.270;4.456;2023-04-24T05:59:10;9.60;99.90
9497;DHT22;4786;51.270;4.456;2023-04-24T06:01:36;9.70;99.90
9497;DHT22;4786;51.270;4.456;2023-04-24T06:04:03;9.70;99.90
9497;DHT22;4786;51.270;4.456;2023-04-24T06:06:30;9.60;99.90
9497;DHT22;4786;51.270;4.456;2023-04-24T06:08:56;9.60;99.90
9497;DHT22;4786;51.270;4.456;2023-04-24T06:11:22;9.60;99.90
9497;DHT22;4786;51.270;4.456;2023-04-24T06:13:49;9.60;99.90
9497;DHT22;4786;51.270;4.456;2023-04-24T06:16:15;9.70;99.90
9497;DHT22;4786;51.270;4.456;2023-04-24T06:18:40;9.70;99.90
9497;DHT22;4786;51.270;4.456;2023-04-24T06:21:06;9.80;99.90
9497;DHT22;4786;51.270;4.456;2023-04-24T06:23:32;9.90;99.90
9497;DHT22;4786;51.270;4.456;2023-04-24T06:25:58;9.80;99.90
9497;DHT22;4786;51.270;4.456;2023-04-24T06:28:25;9.80;99.90
9497;DHT22;4786;51.270;4.456;2023-04-24T06:30:50;9.80;99.90
9497;DHT22;4786;51.270;4.456;2023-04-24T06:33:17;9.80;99.90
9497;DHT22;4786;51.270;4.456;2023-04-24T06:35:42;9.90;99.90
9497;DHT22;4786;51.270;4.456;2023-04-24T06:38:08;9.90;99.90
9497;DHT22;4786;51.270;4.456;2023-04-24T06:40:34;9.90;99.90
9497;DHT22;4786;51.270;4.456;2023-04-24T06:42:59;9.90;99.90
9497;DHT22;4786;51.270;4.456;2023-04-24T06:45:28;9.90;99.90
9497;DHT22;4786;51.270;4.456;2023-04-24T06:47:54;9.90;99.90
9497;DHT22;4786;51.270;4.456;2023-04-24T06:50:20;9.90;99.90
9497;DHT22;4786;51.270;4.456;2023-04-24T06:52:45;9.90;99.90
9497;DHT22;4786;51.270;4.456;2023-04-24T06:55:12;10.00;99.90
9497;DHT22;4786;51.270;4.456;2023-04-24T06:57:37;10.00;99.90
9497;DHT22;4786;51.270;4.456;2023-04-24T07:00:04;9.90;99.90
9497;DHT22;4786;51.270;4.456;2023-04-24T07:02:31;9.90;99.90
9497;DHT22;4786;51.270;4.456;2023-04-24T07:05:00;9.90;99.90
9497;DHT22;4786;51.270;4.456;2023-04-24T07:07:26;9.90;99.90
9497;DHT22;4786;51.270;4.456;2023-04-24T07:09:53;9.90;99.90
9497;DHT22;4786;51.270;4.456;2023-04-24T07:12:19;9.90;99.90
9497;DHT22;4786;51.270;4.456;2023-04-24T07:14:50;9.90;99.90
9497;DHT22;4786;51.270;4.456;2023-04-24T07:17:16;9.90;99.90
9497;DHT22;4786;51.270;4.456;2023-04-24T07:19:46;10.00;99.90
9497;DHT22;4786;51.270;4.456;2023-04-24T07:22:12;9.80;99.90
9497;DHT22;4786;51.270;4.456;2023-04-24T07:24:43;9.90;99.90
9497;DHT22;4786;51.270;4.456;2023-04-24T07:27:08;9.90;99.90
9497;DHT22;4786;51.270;4.456;2023-04-24T07:29:34;9.90;99.90
9497;DHT22;4786;51.270;4.456;2023-04-24T07:32:03;9.80;99.90
9497;DHT22;4786;51.270;4.456;2023-04-24T07:34:31;9.90;99.90
9497;DHT22;4786;51.270;4.456;2023-04-24T07:36:57;9.90;99.90
9497;DHT22;4786;51.270;4.456;2023-04-24T07:39:23;9.90;99.90
9497;DHT22;4786;51.270;4.456;2023-04-24T07:41:49;9.90;99.90
9497;DHT22;4786;51.270;4.456;2023-04-24T07:44:14;10.00;99.90
9497;DHT22;4786;51.270;4.456;2023-04-24T07:46:40;10.20;99.90
9497;DHT22;4786;51.270;4.456;2023-04-24T07:49:06;10.20;99.90
9497;DHT22;4786;51.270;4.456;2023-04-24T07:51:32;10.30;99.90
9497;DHT22;4786;51.270;4.456;2023-04-24T07:54:06;10.30;99.90
9497;DHT22;4786;51.270;4.456;2023-04-24T07:56:32;10.40;99.90
9497;DHT22;4786;51.270;4.456;2023-04-24T07:58:58;10.50;99.90
9497;DHT22;4786;51.270;4.456;2023-04-24T08:01:24;10.60;99.90
9497;DHT22;4786;51.270;4.456;2023-04-24T08:03:50;10.80;99.90
9497;DHT22;4786;51.270;4.456;2023-04-24T08:06:16;10.90;99.90
9497;DHT22;4786;51.270;4.456;2023-04-24T08:08:43;10.90;99.90
9497;DHT22;4786;51.270;4.456;2023-04-24T08:11:09;10.90;99.90
9497;DHT22;4786;51.270;4.456;2023-04-24T08:13:35;10.90;99.90
9497;DHT22;4786;51.270;4.456;2023-04-24T08:16:03;10.90;99.90
9497;DHT22;4786;51.270;4.456;2023-04-24T08:18:29;10.80;99.90
9497;DHT22;4786;51.270;4.456;2023-04-24T08:20:55;10.80;99.90
9497;DHT22;4786;51.270;4.456;2023-04-24T08:23:23;10.80;99.90
9497;DHT22;4786;51.270;4.456;2023-04-24T08:25:49;10.90;99.90
9497;DHT22;4786;51.270;4.456;2023-04-24T08:28:15;11.00;99.90
9497;DHT22;4786;51.270;4.456;2023-04-24T08:30:45;11.10;99.90
9497;DHT22;4786;51.270;4.456;2023-04-24T08:33:11;11.30;99.90
9497;DHT22;4786;51.270;4.456;2023-04-24T08:35:38;11.60;99.90
9497;DHT22;4786;51.270;4.456;2023-04-24T08:38:04;11.70;99.90
9497;DHT22;4786;51.270;4.456;2023-04-24T08:40:33;11.70;99.90
9497;DHT22;4786;51.270;4.456;2023-04-24T08:43:00;11.70;99.90
9497;DHT22;4786;51.270;4.456;2023-04-24T08:45:26;11.80;99.90
9497;DHT22;4786;51.270;4.456;2023-04-24T08:47:54;11.90;99.90
9497;DHT22;4786;51.270;4.456;2023-04-24T08:50:21;11.90;99.90
9497;DHT22;4786;51.270;4.456;2023-04-24T08:52:50;12.00;99.90
9497;DHT22;4786;51.270;4.456;2023-04-24T08:55:16;12.20;99.90
9497;DHT22;4786;51.270;4.456;2023-04-24T08:57:45;12.20;99.90
9497;DHT22;4786;51.270;4.456;2023-04-24T09:00:11;12.30;99.90
9497;DHT22;4786;51.270;4.456;2023-04-24T09:02:42;12.30;99.90
9497;DHT22;4786;51.270;4.456;2023-04-24T09:05:08;12.30;99.90
9497;DHT22;4786;51.270;4.456;2023-04-24T09:07:37;12.30;99.90
9497;DHT22;4786;51.270;4.456;2023-04-24T09:10:07;12.20;99.90
9497;DHT22;4786;51.270;4.456;2023-04-24T09:12:34;12.10;99.90
9497;DHT22;4786;51.270;4.456;2023-04-24T09:15:02;11.90;99.90
9497;DHT22;4786;51.270;4.456;2023-04-24T09:17:30;11.70;99.90
9497;DHT22;4786;51.270;4.456;2023-04-24T09:19:58;11.50;99.90
9497;DHT22;4786;51.270;4.456;2023-04-24T09:22:29;11.50;99.90
9497;DHT22;4786;51.270;4.456;2023-04-24T09:25:07;11.40;99.90
9497;DHT22;4786;51.270;4.456;2023-04-24T09:27:33;11.50;99.90
9497;DHT22;4786;51.270;4.456;2023-04-24T09:30:00;11.50;99.90
9497;DHT22;4786;51.270;4.456;2023-04-24T09:32:26;11.50;99.90
9497;DHT22;4786;51.270;4.456;2023-04-24T09:37:38;11.50;99.90
9497;DHT22;4786;51.270;4.456;2023-04-24T09:40:11;11.50;99.90
9497;DHT22;4786;51.270;4.456;2023-04-24T09:42:37;11.60;99.90
9497;DHT22;4786;51.270;4.456;2023-04-24T09:45:09;11.60;99.90
9497;DHT22;4786;51.270;4.456;2023-04-24T09:47:39;11.60;99.90
9497;DHT22;4786;51.270;4.456;2023-04-24T09:50:13;11.70;99.90
9497;DHT22;4786;51.270;4.456;2023-04-24T09:52:42;11.80;99.90
9497;DHT22;4786;51.270;4.456;2023-04-24T09:55:27;11.80;99.90
9497;DHT22;4786;51.270;4.456;2023-04-24T09:57:56;11.80;99.90
9497;DHT22;4786;51.270;4.456;2023-04-24T10:00:30;11.80;99.90
9497;DHT22;4786;51.270;4.456;2023-04-24T10:05:28;11.80;99.90
9497;DHT22;4786;51.270;4.456;2023-04-24T10:08:01;11.70;99.90
9497;DHT22;4786;51.270;4.456;2023-04-24T10:10:27;11.80;99.90
9497;DHT22;4786;51.270;4.456;2023-04-24T10:12:56;11.70;99.90
9497;DHT22;4786;51.270;4.456;2023-04-24T10:15:24;11.60;99.90
9497;DHT22;4786;51.270;4.456;2023-04-24T10:17:51;11.50;99.90
9497;DHT22;4786;51.270;4.456;2023-04-24T10:20:25;11.50;99.90
9497;DHT22;4786;51.270;4.456;2023-04-24T10:22:52;11.40;99.90
9497;DHT22;4786;51.270;4.456;2023-04-24T10:25:23;11.30;99.90
9497;DHT22;4786;51.270;4.456;2023-04-24T10:27:50;11.20;99.90
9497;DHT22;4786;51.270;4.456;2023-04-24T10:30:18;11.20;99.90
9497;DHT22;4786;51.270;4.456;2023-04-24T10:32:44;11.20;99.90
9497;DHT22;4786;51.270;4.456;2023-04-24T10:35:13;11.30;99.90
9497;DHT22;4786;51.270;4.456;2023-04-24T10:38:01;11.30;99.90
9497;DHT22;4786;51.270;4.456;2023-04-24T10:40:33;11.50;99.90
9497;DHT22;4786;51.270;4.456;2023-04-24T10:43:02;11.60;99.90
9497;DHT22;4786;51.270;4.456;2023-04-24T10:45:28;12.00;99.90
9497;DHT22;4786;51.270;4.456;2023-04-24T10:48:02;12.60;99.90
9497;DHT22;4786;51.270;4.456;2023-04-24T10:50:52;13.00;99.90
9497;DHT22;4786;51.270;4.456;2023-04-24T10:53:28;13.20;99.90
9497;DHT22;4786;51.270;4.456;2023-04-24T10:56:08;13.50;99.90
9497;DHT22;4786;51.270;4.456;2023-04-24T11:01:08;13.60;99.90
9497;DHT22;4786;51.270;4.456;2023-04-24T11:03:36;13.60;99.90
9497;DHT22;4786;51.270;4.456;2023-04-24T11:06:04;13.60;99.90
9497;DHT22;4786;51.270;4.456;2023-04-24T11:08:52;13.50;99.90
9497;DHT22;4786;51.270;4.456;2023-04-24T11:11:18;13.20;99.90
9497;DHT22;4786;51.270;4.456;2023-04-24T11:21:46;12.70;99.90
9497;DHT22;4786;51.270;4.456;2023-04-24T11:34:52;12.60;99.90
9497;DHT22;4786;51.270;4.456;2023-04-24T11:37:19;12.40;99.90
9497;DHT22;4786;51.270;4.456;2023-04-24T11:39:45;12.40;99.90
9497;DHT22;4786;51.270;4.456;2023-04-24T11:42:14;12.40;99.90
9497;DHT22;4786;51.270;4.456;2023-04-24T11:44:45;12.50;99.90
9497;DHT22;4786;51.270;4.456;2023-04-24T11:47:15;12.60;99.90
9497;DHT22;4786;51.270;4.456;2023-04-24T11:49:41;12.60;99.90
9497;DHT22;4786;51.270;4.456;2023-04-24T11:52:07;12.60;99.90
9497;DHT22;4786;51.270;4.456;2023-04-24T11:54:34;12.50;99.90
9497;DHT22;4786;51.270;4.456;2023-04-24T11:57:04;12.40;99.90
9497;DHT22;4786;51.270;4.456;2023-04-24T11:59:35;12.40;99.90
9497;DHT22;4786;51.270;4.456;2023-04-24T12:02:01;12.40;99.90
9497;DHT22;4786;51.270;4.456;2023-04-24T12:04:40;12.40;99.90
9497;DHT22;4786;51.270;4.456;2023-04-24T12:07:09;12.50;99.90
9497;DHT22;4786;51.270;4.456;2023-04-24T12:12:08;12.50;99.90
9497;DHT22;4786;51.270;4.456;2023-04-24T12:14:50;12.50;99.90
9497;DHT22;4786;51.270;4.456;2023-04-24T12:17:17;12.50;99.90
9497;DHT22;4786;51.270;4.456;2023-04-24T12:19:48;12.60;99.90
9497;DHT22;4786;51.270;4.456;2023-04-24T12:22:16;12.80;99.90
9497;DHT22;4786;51.270;4.456;2023-04-24T12:25:02;12.80;99.90
9497;DHT22;4786;51.270;4.456;2023-04-24T12:27:33;13.00;99.90
9497;DHT22;4786;51.270;4.456;2023-04-24T12:30:02;13.00;99.90
9497;DHT22;4786;51.270;4.456;2023-04-24T12:32:31;13.10;99.90
9497;DHT22;4786;51.270;4.456;2023-04-24T12:34:59;13.10;99.90
9497;DHT22;4786;51.270;4.456;2023-04-24T12:37:26;13.20;99.90
9497;DHT22;4786;51.270;4.456;2023-04-24T12:40:09;13.20;99.90
9497;DHT22;4786;51.270;4.456;2023-04-24T12:42:48;13.30;99.90
9497;DHT22;4786;51.270;4.456;2023-04-24T12:45:17;13.50;99.90
9497;DHT22;4786;51.270;4.456;2023-04-24T12:47:45;13.70;99.90
9497;DHT22;4786;51.270;4.456;2023-04-24T12:50:13;13.80;99.90
9497;DHT22;4786;51.270;4.456;2023-04-24T12:52:42;13.90;99.90
9497;DHT22;4786;51.270;4.456;2023-04-24T12:55:08;14.10;99.90
9497;DHT22;4786;51.270;4.456;2023-04-24T12:57:39;14.40;99.90
9497;DHT22;4786;51.270;4.456;2023-04-24T13:00:06;14.60;99.90
9497;DHT22;4786;51.270;4.456;2023-04-24T13:02:33;14.70;99.90
9497;DHT22;4786;51.270;4.456;2023-04-24T13:04:59;14.80;99.90
9497;DHT22;4786;51.270;4.456;2023-04-24T13:07:27;14.70;99.90
9497;DHT22;4786;51.270;4.456;2023-04-24T13:09:56;14.70;99.90
9497;DHT22;4786;51.270;4.456;2023-04-24T13:12:22;14.60;99.90
9497;DHT22;4786;51.270;4.456;2023-04-24T13:14:49;14.50;99.90
9497;DHT22;4786;51.270;4.456;2023-04-24T13:17:15;14.30;99.90
9497;DHT22;4786;51.270;4.456;2023-04-24T13:19:42;14.10;99.90
9497;DHT22;4786;51.270;4.456;2023-04-24T13:22:12;13.90;99.90
9497;DHT22;4786;51.270;4.456;2023-04-24T13:24:39;13.60;99.90
9497;DHT22;4786;51.270;4.456;2023-04-24T13:27:06;13.50;99.90
9497;DHT22;4786;51.270;4.456;2023-04-24T13:29:32;13.40;99.90
9497;DHT22;4786;51.270;4.456;2023-04-24T13:31:58;13.40;99.90
9497;DHT22;4786;51.270;4.456;2023-04-24T13:34:24;13.50;99.90
9497;DHT22;4786;51.270;4.456;2023-04-24T13:36:57;13.70;99.90
9497;DHT22;4786;51.270;4.456;2023-04-24T13:39:26;13.90;99.90
9497;DHT22;4786;51.270;4.456;2023-04-24T13:41:54;14.00;99.90
9497;DHT22;4786;51.270;4.456;2023-04-24T13:44:21;14.00;99.90
9497;DHT22;4786;51.270;4.456;2023-04-24T13:46:52;14.00;99.90
9497;DHT22;4786;51.270;4.456;2023-04-24T13:49:20;14.00;99.90
9497;DHT22;4786;51.270;4.456;2023-04-24T13:51:47;14.00;99.90
9497;DHT22;4786;51.270;4.456;2023-04-24T13:54:15;14.00;99.90
9497;DHT22;4786;51.270;4.456;2023-04-24T13:56:41;14.00;99.90
9497;DHT22;4786;51.270;4.456;2023-04-24T13:59:07;14.00;99.90
9497;DHT22;4786;51.270;4.456;2023-04-24T14:01:34;14.20;99.90
9497;DHT22;4786;51.270;4.456;2023-04-24T14:04:02;14.40;99.90
9497;DHT22;4786;51.270;4.456;2023-04-24T14:06:28;14.50;99.90
9497;DHT22;4786;51.270;4.456;2023-04-24T14:08:54;14.80;99.90
9497;DHT22;4786;51.270;4.456;2023-04-24T14:11:20;14.90;99.90
9497;DHT22;4786;51.270;4.456;2023-04-24T14:13:46;15.00;99.90
9497;DHT22;4786;51.270;4.456;2023-04-24T14:16:12;14.90;99.90
9497;DHT22;4786;51.270;4.456;2023-04-24T14:18:40;15.10;99.90
9497;DHT22;4786;51.270;4.456;2023-04-24T14:21:06;15.10;99.90
9497;DHT22;4786;51.270;4.456;2023-04-24T14:23:32;15.20;99.90
9497;DHT22;4786;51.270;4.456;2023-04-24T14:25:58;15.30;99.90
9497;DHT22;4786;51.270;4.456;2023-04-24T14:28:25;15.40;99.90
9497;DHT22;4786;51.270;4.456;2023-04-24T14:30:52;15.40;99.90
9497;DHT22;4786;51.270;4.456;2023-04-24T14:33:17;15.20;99.90
9497;DHT22;4786;51.270;4.456;2023-04-24T14:35:43;14.80;99.90
9497;DHT22;4786;51.270;4.456;2023-04-24T14:38:09;14.50;99.90
9497;DHT22;4786;51.270;4.456;2023-04-24T14:40:38;14.40;99.90
9497;DHT22;4786;51.270;4.456;2023-04-24T14:43:04;14.10;99.90
9497;DHT22;4786;51.270;4.456;2023-04-24T14:45:30;14.00;99.90
9497;DHT22;4786;51.270;4.456;2023-04-24T14:47:57;14.00;99.90
9497;DHT22;4786;51.270;4.456;2023-04-24T14:50:23;14.00;99.90
9497;DHT22;4786;51.270;4.456;2023-04-24T14:52:55;14.00;99.90
9497;DHT22;4786;51.270;4.456;2023-04-24T14:55:25;13.90;99.90
9497;DHT22;4786;51.270;4.456;2023-04-24T14:57:54;13.80;99.90
9497;DHT22;4786;51.270;4.456;2023-04-24T15:00:21;13.70;99.90
9497;DHT22;4786;51.270;4.456;2023-04-24T15:02:48;13.90;99.90
9497;DHT22;4786;51.270;4.456;2023-04-24T15:05:14;14.10;99.90
9497;DHT22;4786;51.270;4.456;2023-04-24T15:07:39;14.30;99.90
9497;DHT22;4786;51.270;4.456;2023-04-24T15:10:09;14.40;99.90
9497;DHT22;4786;51.270;4.456;2023-04-24T15:12:35;14.30;99.90
9497;DHT22;4786;51.270;4.456;2023-04-24T15:15:02;14.30;99.90
9497;DHT22;4786;51.270;4.456;2023-04-24T15:17:27;14.10;99.90
9497;DHT22;4786;51.270;4.456;2023-04-24T15:19:53;14.00;99.90
9497;DHT22;4786;51.270;4.456;2023-04-24T15:22:19;13.70;99.90
9497;DHT22;4786;51.270;4.456;2023-04-24T15:24:46;13.50;99.90
9497;DHT22;4786;51.270;4.456;2023-04-24T15:27:12;13.40;99.90
9497;DHT22;4786;51.270;4.456;2023-04-24T15:29:38;13.40;99.90
9497;DHT22;4786;51.270;4.456;2023-04-24T15:32:04;13.40;99.90
9497;DHT22;4786;51.270;4.456;2023-04-24T15:34:30;13.30;99.90
9497;DHT22;4786;51.270;4.456;2023-04-24T15:36:59;13.30;99.90
9497;DHT22;4786;51.270;4.456;2023-04-24T15:39:30;13.30;99.90
9497;DHT22;4786;51.270;4.456;2023-04-24T15:41:55;13.30;99.90
9497;DHT22;4786;51.270;4.456;2023-04-24T15:44:24;13.30;99.90
9497;DHT22;4786;51.270;4.456;2023-04-24T15:46:50;13.40;99.90
9497;DHT22;4786;51.270;4.456;2023-04-24T15:49:17;13.30;99.90
9497;DHT22;4786;51.270;4.456;2023-04-24T15:51:43;13.30;99.90
9497;DHT22;4786;51.270;4.456;2023-04-24T15:54:10;13.20;99.90
9497;DHT22;4786;51.270;4.456;2023-04-24T15:56:36;13.20;99.90
9497;DHT22;4786;51.270;4.456;2023-04-24T15:59:05;13.00;99.90
9497;DHT22;4786;51.270;4.456;2023-04-24T16:01:36;12.70;99.90
9497;DHT22;4786;51.270;4.456;2023-04-24T16:04:04;12.60;99.90
9497;DHT22;4786;51.270;4.456;2023-04-24T16:06:30;12.70;99.90
9497;DHT22;4786;51.270;4.456;2023-04-24T16:08:56;12.60;99.90
9497;DHT22;4786;51.270;4.456;2023-04-24T16:11:22;12.60;99.90
9497;DHT22;4786;51.270;4.456;2023-04-24T16:13:48;12.60;99.90
9497;DHT22;4786;51.270;4.456;2023-04-24T16:16:14;12.60;99.90
9497;DHT22;4786;51.270;4.456;2023-04-24T16:18:40;12.70;99.90
9497;DHT22;4786;51.270;4.456;2023-04-24T16:21:06;12.70;99.90
9497;DHT22;4786;51.270;4.456;2023-04-24T16:23:33;12.70;99.90
9497;DHT22;4786;51.270;4.456;2023-04-24T16:25:59;12.70;99.90
9497;DHT22;4786;51.270;4.456;2023-04-24T16:28:24;12.80;99.90
9497;DHT22;4786;51.270;4.456;2023-04-24T16:30:52;12.80;99.90
9497;DHT22;4786;51.270;4.456;2023-04-24T16:33:17;12.90;99.90